Central Nebraska Regional Airport
KGRI : now visible

Airfield :











YOU CAN JOIN US ON...

 
LOGIN :

Register | Disclaimer

   EN    FR    IT 

 









Legend :    VFR   Marginal VFR   IFR   Intensive IFR   Very Intensive IFR
Visi :
Ceiling :
>= 8 km
>= 3000ft
5 to 8 km
1000 to 3000 ft
1500m to 5 km
500 to 1000 ft
800 to 1500m
200 to 500 ft
< 800m
< 200 ft
Symbols :   Thunderstorms  Fog  Heavy snow  Heavy precipitations  Wind > 20 kt






- Airport Elevation : 1847 ft
- IATA code : GRI


KGRI - Central Nebraska Regional

CURRENT METAR :
  • 192253Z 14006KT 10SM CLR 14/00 A2982 RMK AO2 SLP107 T01390000

EXPIRED METARs :
  • 192153Z 15007KT 10SM CLR 16/M01 A2982 RMK AO2 SLP107 T01561006
  • 192053Z 16008KT 10SM CLR 17/M01 A2983 RMK AO2 SLP108 T01721006 56021

TAF KGRI
Valid from the 19 at 22:00 until the 20 at 18:00 UTC


192136Z 1922/2018 15008KT P6SM SCT250
FM200700 15008KT P6SM SCT250 WS012/19035KT
FM201400 14006KT P6SM BKN023
FM201500 15009KT P6SM BKN007



MET'MAP, your aeronautical weather chart ! - Copyright ORBIFLY December 2007 - Disclaimer

ORBIFLY MET'MAP TEAM :

Programming & Development : Alexandra Zaïnal
Concept & Development : Baudouin d'Aumeries
Co-Development & Prog : Marc-Olivier Méhu
Technical & hardware support : Manuel Goepfert

Contact : metmap@orbifly.com




SOURCES & CREDITS :

   NOAA       Earth
Advisory